createdAt,value
2019-05-17T00:00:04.148Z,11.80
2019-05-17T00:02:57.163Z,11.60
2019-05-17T00:05:48.356Z,12.93
2019-05-17T00:08:38.523Z,12.10
2019-05-17T00:11:29.829Z,12.90
2019-05-17T00:14:19.548Z,13.10
2019-05-17T00:17:09.552Z,14.27
2019-05-17T00:19:59.583Z,12.77
2019-05-17T00:22:49.948Z,10.13
2019-05-17T00:25:40.022Z,12.67
2019-05-17T00:28:30.226Z,13.50
2019-05-17T00:31:20.005Z,13.03
2019-05-17T00:34:10.044Z,12.10
2019-05-17T00:36:59.838Z,13.90
2019-05-17T00:39:49.915Z,14.00
2019-05-17T00:42:39.947Z,12.90
2019-05-17T00:45:30.005Z,13.33
2019-05-17T00:48:20.106Z,13.43
2019-05-17T00:51:10.959Z,14.60
2019-05-17T00:54:00.964Z,16.13
2019-05-17T00:56:50.900Z,13.13
2019-05-17T00:59:40.805Z,14.10
2019-05-17T01:02:31.157Z,13.97
2019-05-17T01:05:21.320Z,15.97
2019-05-17T01:08:12.159Z,13.00
2019-05-17T01:11:02.405Z,14.90
2019-05-17T01:13:52.398Z,15.27
2019-05-17T01:16:42.674Z,15.13
2019-05-17T01:19:32.425Z,16.40
2019-05-17T01:22:22.630Z,15.90
2019-05-17T01:25:12.858Z,18.20
2019-05-17T01:28:03.023Z,17.93
2019-05-17T01:30:53.896Z,17.10
2019-05-17T01:33:44.035Z,17.03
2019-05-17T01:36:34.030Z,18.13
2019-05-17T01:39:24.015Z,19.20
2019-05-17T01:42:17.022Z,18.40
2019-05-17T01:45:07.379Z,19.73
2019-05-17T01:47:57.750Z,20.30
2019-05-17T01:50:47.433Z,19.63
2019-05-17T01:53:37.300Z,21.90
2019-05-17T01:56:28.708Z,20.77
2019-05-17T01:59:19.317Z,22.80
2019-05-17T02:02:12.336Z,22.80
2019-05-17T02:05:02.179Z,19.63
2019-05-17T02:07:52.666Z,19.10
2019-05-17T02:10:42.681Z,21.33
2019-05-17T02:13:32.758Z,19.80
2019-05-17T02:16:22.622Z,21.77
2019-05-17T02:19:12.659Z,19.70
2019-05-17T02:22:02.700Z,21.53
2019-05-17T02:24:52.517Z,21.17
2019-05-17T02:27:44.751Z,20.83
2019-05-17T02:30:35.102Z,20.80
2019-05-17T02:33:25.897Z,23.73
2019-05-17T02:36:15.861Z,21.90
2019-05-17T02:39:07.660Z,22.80
2019-05-17T02:41:57.950Z,21.93
2019-05-17T02:44:48.181Z,21.47
2019-05-17T02:47:38.307Z,20.90
2019-05-17T02:50:28.179Z,22.23
2019-05-17T02:53:18.488Z,23.33
2019-05-17T02:56:08.460Z,19.90
2019-05-17T02:58:58.604Z,21.57
2019-05-17T03:01:48.974Z,22.10
2019-05-17T03:04:38.992Z,20.87
2019-05-17T03:07:32.451Z,21.97
2019-05-17T03:10:25.225Z,19.40
2019-05-17T03:13:17.157Z,23.70
2019-05-17T03:16:04.922Z,20.00
2019-05-17T03:18:54.975Z,22.63
2019-05-17T03:21:45.546Z,23.43
2019-05-17T03:24:35.843Z,25.80
2019-05-17T03:27:25.669Z,25.37
2019-05-17T03:30:18.170Z,25.50
2019-05-17T03:33:08.313Z,25.77
2019-05-17T03:35:59.187Z,24.10
2019-05-17T03:38:49.089Z,23.00
2019-05-17T03:41:42.632Z,24.97
2019-05-17T03:44:33.217Z,24.63
2019-05-17T03:47:22.834Z,24.23
2019-05-17T03:50:14.251Z,26.23
2019-05-17T03:53:05.073Z,25.47
2019-05-17T03:55:55.336Z,25.73
2019-05-17T03:58:45.307Z,26.90
2019-05-17T04:01:35.375Z,25.13
2019-05-17T04:04:25.219Z,25.30
2019-05-17T04:07:15.630Z,25.77
2019-05-17T04:10:06.351Z,25.43
2019-05-17T04:12:56.215Z,23.50
2019-05-17T04:15:46.448Z,25.80
2019-05-17T04:18:36.550Z,25.47
2019-05-17T04:21:27.673Z,25.67
2019-05-17T04:24:17.431Z,24.23
2019-05-17T04:27:07.635Z,23.70
2019-05-17T04:29:57.939Z,25.70
2019-05-17T04:32:48.063Z,25.00
2019-05-17T04:35:38.164Z,25.80
2019-05-17T04:38:27.755Z,23.70
2019-05-17T04:41:36.192Z,23.47
2019-05-17T04:44:12.664Z,25.67
2019-05-17T04:47:03.176Z,24.10
2019-05-17T04:49:53.863Z,26.43
2019-05-17T04:52:44.235Z,26.50
2019-05-17T04:55:34.570Z,27.40
2019-05-17T04:58:24.757Z,27.30
2019-05-17T05:01:14.881Z,25.60
2019-05-17T05:04:05.214Z,24.40
2019-05-17T05:06:56.033Z,25.60
2019-05-17T05:09:46.205Z,25.30
2019-05-17T05:12:36.108Z,24.70
2019-05-17T05:15:44.597Z,26.50
2019-05-17T05:18:34.927Z,26.37
2019-05-17T05:21:24.577Z,27.40
2019-05-17T05:24:15.016Z,26.10
2019-05-17T05:27:04.938Z,26.27
2019-05-17T05:29:54.598Z,26.50
2019-05-17T05:32:44.861Z,26.37
2019-05-17T05:35:35.148Z,27.17
2019-05-17T05:38:25.103Z,25.17
2019-05-17T05:41:15.167Z,26.50
2019-05-17T05:44:05.107Z,22.67
2019-05-17T05:46:55.206Z,25.00
2019-05-17T05:49:45.020Z,25.77
2019-05-17T05:52:34.944Z,26.40
2019-05-17T05:55:24.689Z,26.47
2019-05-17T05:58:15.161Z,26.80
2019-05-17T06:01:04.765Z,25.70
2019-05-17T06:03:54.831Z,25.57
2019-05-17T06:06:44.440Z,24.77
2019-05-17T06:09:34.409Z,26.20
2019-05-17T06:12:28.023Z,25.80
2019-05-17T06:15:16.475Z,25.80
2019-05-17T06:18:06.569Z,28.33
2019-05-17T06:20:56.534Z,26.17
2019-05-17T06:23:46.833Z,24.90
2019-05-17T06:26:36.808Z,24.90
2019-05-17T06:29:26.914Z,24.23
2019-05-17T06:32:17.360Z,26.70
2019-05-17T06:35:08.022Z,26.47
2019-05-17T06:37:57.857Z,25.63
2019-05-17T06:40:47.678Z,26.07
2019-05-17T06:43:38.575Z,28.60
2019-05-17T06:46:28.703Z,27.13
2019-05-17T06:49:18.980Z,24.87
2019-05-17T06:52:11.577Z,27.80
2019-05-17T06:55:05.816Z,27.93
2019-05-17T06:57:54.860Z,27.30
2019-05-17T07:00:49.790Z,25.60
2019-05-17T07:03:42.492Z,28.70
2019-05-17T07:06:37.014Z,25.73
2019-05-17T07:09:30.202Z,25.50
2019-05-17T07:12:20.348Z,27.53
2019-05-17T07:15:10.996Z,24.43
2019-05-17T07:18:00.715Z,25.30
2019-05-17T07:20:50.382Z,27.47
2019-05-17T07:23:40.583Z,25.20
2019-05-17T07:26:30.493Z,28.17
2019-05-17T07:29:20.556Z,25.10
2019-05-17T07:32:10.691Z,25.13
2019-05-17T07:35:00.657Z,26.60
2019-05-17T07:37:51.206Z,26.93
2019-05-17T07:40:41.427Z,25.00
2019-05-17T07:43:31.817Z,25.63
2019-05-17T07:46:22.005Z,25.27
2019-05-17T07:49:12.614Z,25.07
2019-05-17T07:52:02.873Z,24.30
2019-05-17T07:54:52.584Z,26.27
2019-05-17T07:57:44.046Z,26.63
2019-05-17T08:00:33.600Z,26.73
2019-05-17T08:03:25.022Z,26.73
2019-05-17T08:06:15.180Z,23.90
2019-05-17T08:09:13.888Z,25.27
2019-05-17T08:12:00.190Z,25.47
2019-05-17T08:14:51.611Z,29.33
2019-05-17T08:17:42.014Z,25.83
2019-05-17T08:20:31.603Z,25.03
2019-05-17T08:23:21.754Z,25.80
2019-05-17T08:26:11.625Z,27.10
2019-05-17T08:29:01.711Z,23.57
2019-05-17T08:31:51.897Z,26.80
2019-05-17T08:34:41.561Z,22.90
2019-05-17T08:37:31.973Z,24.20
2019-05-17T08:40:21.983Z,24.03
2019-05-17T08:43:11.809Z,24.67
2019-05-17T08:46:02.492Z,22.00
2019-05-17T08:48:52.828Z,22.43
2019-05-17T08:51:43.567Z,20.07
2019-05-17T08:54:33.717Z,19.07
2019-05-17T08:57:23.592Z,21.07
2019-05-17T09:00:14.276Z,19.93
2019-05-17T09:03:04.271Z,16.83
2019-05-17T09:05:54.334Z,16.67
2019-05-17T09:08:44.745Z,15.80
2019-05-17T09:11:34.767Z,14.40
2019-05-17T09:14:24.685Z,14.50
2019-05-17T09:17:14.741Z,13.47
2019-05-17T09:20:05.155Z,14.33
2019-05-17T09:22:54.670Z,12.17
2019-05-17T09:25:44.914Z,11.93
2019-05-17T09:28:34.747Z,11.27
2019-05-17T09:31:23.909Z,11.47
2019-05-17T09:34:14.655Z,12.00
2019-05-17T09:37:04.961Z,11.47
2019-05-17T09:39:56.345Z,11.00
2019-05-17T09:42:46.242Z,9.23
2019-05-17T09:45:36.500Z,11.83
2019-05-17T09:48:26.798Z,11.23
2019-05-17T09:51:16.864Z,11.93
2019-05-17T09:54:10.100Z,11.43
2019-05-17T09:57:00.469Z,11.50
2019-05-17T09:59:50.661Z,10.90
2019-05-17T10:02:40.571Z,11.10
2019-05-17T10:05:31.297Z,11.33
2019-05-17T10:08:21.055Z,11.87
2019-05-17T10:11:12.187Z,10.40
2019-05-17T10:14:02.302Z,11.17
2019-05-17T10:16:52.462Z,11.07
2019-05-17T10:19:42.915Z,12.40
2019-05-17T10:22:33.093Z,11.50
2019-05-17T10:25:23.477Z,12.60
2019-05-17T10:28:13.616Z,12.00
2019-05-17T10:31:03.705Z,13.60
2019-05-17T10:33:53.881Z,12.60
2019-05-17T10:36:44.069Z,12.07
2019-05-17T10:39:34.130Z,11.83
2019-05-17T10:42:23.837Z,13.50
2019-05-17T10:45:14.319Z,12.60
2019-05-17T10:48:04.816Z,12.53
2019-05-17T10:50:54.923Z,13.23
2019-05-17T10:53:45.039Z,12.27
2019-05-17T10:56:35.421Z,11.37
2019-05-17T10:59:24.972Z,12.90
2019-05-17T11:02:15.420Z,11.27
2019-05-17T11:05:06.258Z,11.77
2019-05-17T11:07:56.343Z,11.13
2019-05-17T11:10:46.818Z,11.37
2019-05-17T11:13:36.926Z,11.00
2019-05-17T11:16:28.502Z,10.47
2019-05-17T11:19:19.400Z,11.10
2019-05-17T11:22:09.361Z,9.50
2019-05-17T11:24:59.501Z,10.87
2019-05-17T11:27:49.145Z,9.60
2019-05-17T11:30:39.278Z,9.37
2019-05-17T11:33:29.352Z,9.27
2019-05-17T11:36:19.402Z,9.27
2019-05-17T11:39:09.015Z,10.43
2019-05-17T11:41:59.293Z,9.43
2019-05-17T11:44:50.259Z,8.50
2019-05-17T11:47:41.296Z,9.47
2019-05-17T11:50:31.341Z,9.43
2019-05-17T11:53:21.529Z,8.73
2019-05-17T11:56:11.335Z,9.70
2019-05-17T11:59:01.397Z,8.90
2019-05-17T12:01:51.137Z,9.23
2019-05-17T12:04:41.002Z,8.50
2019-05-17T12:07:31.139Z,8.03
2019-05-17T12:10:21.331Z,8.43
2019-05-17T12:13:11.187Z,8.73
2019-05-17T12:16:01.089Z,8.93
2019-05-17T12:18:50.879Z,8.97
2019-05-17T12:21:40.791Z,8.83
2019-05-17T12:24:30.775Z,9.00
2019-05-17T12:27:20.875Z,8.93
2019-05-17T12:30:13.716Z,9.03
2019-05-17T12:33:03.502Z,9.30
2019-05-17T12:35:53.592Z,9.10
2019-05-17T12:38:44.043Z,10.37
2019-05-17T12:41:34.088Z,8.70
2019-05-17T12:44:23.989Z,9.60
2019-05-17T12:47:13.667Z,8.97
2019-05-17T12:50:03.605Z,9.00
2019-05-17T12:52:53.802Z,9.60
2019-05-17T12:55:43.137Z,9.30
2019-05-17T12:58:33.456Z,8.10
2019-05-17T13:01:23.490Z,9.60
2019-05-17T13:04:13.110Z,9.03
2019-05-17T13:07:08.208Z,8.30
2019-05-17T13:09:59.810Z,7.00
2019-05-17T13:12:49.902Z,7.60
2019-05-17T13:15:39.821Z,7.93
2019-05-17T13:18:29.569Z,6.70
2019-05-17T13:21:19.487Z,6.63
2019-05-17T13:24:09.615Z,8.60
2019-05-17T13:26:59.536Z,7.40
2019-05-17T13:29:49.638Z,7.87
2019-05-17T13:32:39.854Z,7.53
2019-05-17T13:35:29.854Z,7.03
2019-05-17T13:38:19.937Z,6.57
2019-05-17T13:41:09.517Z,6.73
2019-05-17T13:43:59.217Z,7.00
2019-05-17T13:46:49.155Z,7.60
2019-05-17T13:49:39.354Z,7.97
2019-05-17T13:52:29.238Z,8.30
2019-05-17T13:55:20.104Z,7.87
2019-05-17T13:58:09.747Z,7.13
2019-05-17T14:00:59.326Z,6.97
2019-05-17T14:03:49.217Z,7.87
2019-05-17T14:06:39.498Z,7.77
2019-05-17T14:09:28.961Z,8.63
2019-05-17T14:12:18.691Z,8.80
2019-05-17T14:15:10.282Z,9.37
2019-05-17T14:18:01.019Z,9.20
2019-05-17T14:20:51.086Z,9.23
2019-05-17T14:23:41.417Z,7.93
2019-05-17T14:26:31.099Z,8.20
2019-05-17T14:29:21.124Z,9.27
2019-05-17T14:32:11.452Z,8.90
2019-05-17T14:35:01.615Z,9.17
2019-05-17T14:37:52.340Z,9.70
2019-05-17T14:43:35.443Z,8.80
2019-05-17T14:46:25.608Z,7.80
2019-05-17T14:49:15.634Z,8.13
2019-05-17T14:52:05.816Z,8.87
2019-05-17T14:54:55.738Z,9.07
2019-05-17T14:57:45.775Z,8.30
2019-05-17T15:00:35.769Z,7.80
2019-05-17T15:03:26.596Z,8.40
2019-05-17T15:06:16.322Z,9.57
2019-05-17T15:09:11.532Z,9.10
2019-05-17T15:12:00.423Z,9.17
2019-05-17T15:14:50.328Z,7.70
2019-05-17T15:17:40.450Z,8.23
2019-05-17T15:20:30.148Z,8.87
2019-05-17T15:23:20.181Z,8.40
2019-05-17T15:26:10.077Z,9.00
2019-05-17T15:29:00.358Z,10.00
2019-05-17T15:31:52.128Z,9.90
2019-05-17T15:34:42.852Z,9.13
2019-05-17T15:37:32.362Z,10.27
2019-05-17T15:40:22.754Z,10.10
2019-05-17T15:43:13.187Z,10.67
2019-05-17T15:46:03.406Z,10.00
2019-05-17T15:48:53.188Z,9.43
2019-05-17T15:51:43.253Z,9.00
2019-05-17T15:54:33.335Z,7.80
2019-05-17T15:57:23.274Z,9.43
2019-05-17T16:00:16.061Z,9.00
2019-05-17T16:03:06.239Z,10.03
2019-05-17T16:05:56.577Z,9.00
2019-05-17T16:08:46.912Z,8.70
2019-05-17T16:11:36.917Z,9.47
2019-05-17T16:14:26.306Z,9.10
2019-05-17T16:17:16.218Z,9.80
2019-05-17T16:20:07.650Z,10.27
2019-05-17T16:22:57.852Z,9.60
2019-05-17T16:25:47.681Z,10.37
2019-05-17T16:28:37.652Z,12.77
2019-05-17T16:31:27.792Z,10.30
2019-05-17T16:34:17.701Z,9.57
2019-05-17T16:37:07.885Z,8.20
2019-05-17T16:39:57.732Z,9.47
2019-05-17T16:42:47.660Z,9.00
2019-05-17T16:45:37.728Z,8.80
2019-05-17T16:48:27.910Z,8.80
2019-05-17T16:51:17.912Z,8.03
2019-05-17T16:54:07.827Z,8.93
2019-05-17T16:56:57.699Z,8.70
2019-05-17T16:59:47.912Z,9.03
2019-05-17T17:02:37.694Z,8.87
2019-05-17T17:05:27.977Z,13.03
2019-05-17T17:08:18.239Z,11.33
2019-05-17T17:11:08.449Z,8.70
2019-05-17T17:13:58.053Z,9.67
2019-05-17T17:16:47.609Z,9.70
2019-05-17T17:19:37.983Z,9.20
2019-05-17T17:22:28.206Z,9.00
2019-05-17T17:25:18.197Z,9.13
2019-05-17T17:28:08.346Z,8.13
2019-05-17T17:30:58.377Z,8.43
2019-05-17T17:33:48.551Z,8.40
2019-05-17T17:36:38.462Z,8.37
2019-05-17T17:39:28.386Z,7.70
2019-05-17T17:42:19.126Z,7.00
2019-05-17T17:45:11.028Z,7.73
2019-05-17T17:48:00.885Z,7.93
2019-05-17T17:50:50.927Z,8.80
2019-05-17T17:53:40.104Z,6.80
2019-05-17T17:56:29.624Z,7.20
2019-05-17T17:59:19.748Z,7.97
2019-05-17T18:02:09.951Z,9.80
2019-05-17T18:05:00.091Z,7.80
2019-05-17T18:07:50.137Z,7.17
2019-05-17T18:10:40.713Z,7.00
2019-05-17T18:13:30.318Z,7.20
2019-05-17T18:16:20.170Z,6.90
2019-05-17T18:19:10.391Z,7.90
2019-05-17T18:22:00.604Z,6.30
2019-05-17T18:24:52.633Z,6.63
2019-05-17T18:27:42.782Z,7.33
2019-05-17T18:30:33.504Z,7.00
2019-05-17T18:33:23.499Z,6.40
2019-05-17T18:36:13.698Z,6.80
2019-05-17T18:39:06.159Z,6.57
2019-05-17T18:41:57.567Z,7.13
2019-05-17T18:44:47.466Z,6.60
2019-05-17T18:47:37.720Z,6.43
2019-05-17T18:50:28.270Z,7.57
2019-05-17T18:53:19.805Z,7.07
2019-05-17T18:56:10.029Z,8.30
2019-05-17T18:59:00.195Z,8.07
2019-05-17T19:01:50.343Z,7.23
2019-05-17T19:04:40.389Z,7.63
2019-05-17T19:07:30.459Z,6.83
2019-05-17T19:10:21.984Z,7.47
2019-05-17T19:13:11.792Z,7.80
2019-05-17T19:16:01.641Z,7.33
2019-05-17T19:18:51.433Z,8.63
2019-05-17T19:21:43.099Z,7.50
2019-05-17T19:24:33.948Z,7.67
2019-05-17T19:27:24.250Z,7.70
2019-05-17T19:30:18.709Z,8.10
2019-05-17T19:33:09.167Z,8.40
2019-05-17T19:35:59.431Z,8.53
2019-05-17T19:38:50.609Z,8.83
2019-05-17T19:41:40.398Z,8.80
2019-05-17T19:44:30.611Z,8.93
2019-05-17T19:47:21.048Z,10.13
2019-05-17T19:50:11.055Z,8.80
2019-05-17T19:53:00.047Z,9.03
2019-05-17T19:55:49.875Z,10.10
2019-05-17T19:58:40.127Z,10.10
2019-05-17T20:01:30.108Z,9.60
2019-05-17T20:04:21.135Z,10.73
2019-05-17T20:07:11.802Z,10.60
2019-05-17T20:10:02.175Z,9.93
2019-05-17T20:12:52.775Z,14.27
2019-05-17T20:15:42.807Z,10.57
2019-05-17T20:18:32.900Z,10.40
2019-05-17T20:21:22.953Z,10.83
2019-05-17T20:24:13.078Z,11.70
2019-05-17T20:27:03.586Z,10.30
2019-05-17T20:29:53.367Z,13.80
2019-05-17T20:32:44.670Z,12.13
2019-05-17T20:35:34.241Z,12.27
2019-05-17T20:38:25.068Z,11.87
2019-05-17T20:41:15.381Z,11.90
2019-05-17T20:44:05.565Z,12.23
2019-05-17T20:46:57.463Z,12.40
2019-05-17T20:49:47.151Z,12.00
2019-05-17T20:52:36.931Z,13.03
2019-05-17T20:55:27.382Z,12.97
2019-05-17T20:58:35.985Z,13.60
2019-05-17T21:01:26.265Z,12.57
2019-05-17T21:04:15.769Z,13.57
2019-05-17T21:07:05.746Z,12.80
2019-05-17T21:09:56.178Z,12.57
2019-05-17T21:12:46.499Z,14.57
2019-05-17T21:15:46.927Z,12.40
2019-05-17T21:18:26.571Z,14.27
2019-05-17T21:21:16.331Z,13.80
2019-05-17T21:24:06.660Z,15.30
2019-05-17T21:26:56.662Z,14.37
2019-05-17T21:29:46.909Z,15.20
2019-05-17T21:32:37.192Z,14.93
2019-05-17T21:35:27.520Z,14.67
2019-05-17T21:38:19.796Z,14.93
2019-05-17T21:41:09.798Z,15.30
2019-05-17T21:43:59.801Z,15.37
2019-05-17T21:47:03.742Z,15.80
2019-05-17T21:49:41.479Z,14.63
2019-05-17T21:52:31.223Z,14.50
2019-05-17T21:55:21.431Z,16.20
2019-05-17T21:58:11.335Z,16.47
2019-05-17T22:01:22.929Z,15.03
2019-05-17T22:04:13.096Z,15.37
2019-05-17T22:07:03.004Z,16.80
2019-05-17T22:09:52.761Z,16.27
2019-05-17T22:12:42.663Z,15.97
2019-05-17T22:15:32.650Z,16.00
2019-05-17T22:18:22.801Z,15.60
2019-05-17T22:21:13.160Z,15.27
2019-05-17T22:24:04.710Z,15.13
2019-05-17T22:26:54.536Z,15.77
2019-05-17T22:29:44.557Z,16.43
2019-05-17T22:32:34.771Z,15.20
2019-05-17T22:35:24.659Z,14.67
2019-05-17T22:38:14.643Z,15.47
2019-05-17T22:41:04.868Z,15.47
2019-05-17T22:43:55.181Z,17.10
2019-05-17T22:46:44.707Z,16.97
2019-05-17T22:49:34.479Z,15.13
2019-05-17T22:52:27.544Z,14.63
2019-05-17T22:55:17.583Z,14.60
2019-05-17T22:58:07.804Z,16.00
2019-05-17T23:00:58.105Z,16.00
2019-05-17T23:03:47.950Z,14.93
2019-05-17T23:06:38.540Z,15.93
2019-05-17T23:09:28.576Z,16.93
2019-05-17T23:12:18.864Z,16.60
2019-05-17T23:15:08.919Z,16.13
2019-05-17T23:17:58.669Z,17.77
2019-05-17T23:20:48.368Z,16.23
2019-05-17T23:23:38.181Z,15.53
2019-05-17T23:26:28.635Z,15.90
2019-05-17T23:29:18.625Z,15.27
2019-05-17T23:32:08.434Z,16.90
2019-05-17T23:34:59.589Z,17.50
2019-05-17T23:37:49.926Z,16.00
2019-05-17T23:40:39.761Z,15.33
2019-05-17T23:43:29.452Z,16.47
2019-05-17T23:46:18.982Z,15.53
2019-05-17T23:49:09.186Z,16.73
2019-05-17T23:51:59.233Z,15.80
2019-05-17T23:54:48.971Z,16.40
2019-05-17T23:57:39.073Z,14.83
